Etusivu
METAR-TAF:

METAR-TAF

Lentoasemat :

Førde, Norja

Leveyspiiri: 61-27N, Pituuspiiri: 005-52E, korkeus merenpinnasta: 150 m

Tämänhetkinen sää

Tämä raportti tehtiin 31 minuuttia sitten, kello 11.20 UTC
Tuuli 7 kn lännestä
Lämpötila 3°C
Kosteus 93%
Ilmanpaine 1015 hPa
Näkyvyys: 5000 m
Muutamia pilviä 300 ft:n korkeudessa
Muutamia pilviä 1400 ft:n korkeudessa, Kasvava cumulus-pilvi.
Hajanaisia pilviä 1400 ft:n korkeudessa
Hajonneita pilviä 2300 ft:n korkeudessa
vesikuuroja

METAR: ENBL 221120Z 28007KT 9999 5000E SHRA FEW003 FEW014TCU SCT014 BKN023 03/02 Q1015

Aika: 13:51 (11:51 UTC)


TAF: puuttuu

Säähavainnot ja -ennusteet yli 4000 lentoasemalta (METAR- ja TAF-raportit).

Käytössä olevat sääasemat on merkitty karttaan keltaisilla ja punaisilla pisteillä.

Aseta hiiri pisteen päälle nähdäksesi sääaseman nimen.

Klikkaa sitten nähdäksesi säähavainnot ja -ennusteet.

Kartan vaihtaminen: klikkaa mustalla rastilla varustettuja vihreitä pisteitä, niin voit zoomata sisään; viivalla varustettua vihreää pistettä, niin voit zoomata ulos tai vihreitä nuolia, niin pääset viereisille kartoille.


METAR-TAF: